createdAt,value
2022-10-06T00:01:06.950Z,11.30
2022-10-06T00:04:49.290Z,11.30
2022-10-06T00:08:33.484Z,11.20
2022-10-06T00:12:15.403Z,11.10
2022-10-06T00:15:57.651Z,11.10
2022-10-06T00:19:39.699Z,11.00
2022-10-06T00:23:21.723Z,10.90
2022-10-06T00:27:03.774Z,10.90
2022-10-06T00:30:46.794Z,10.80
2022-10-06T00:34:28.804Z,10.80
2022-10-06T00:38:16.201Z,10.70
2022-10-06T00:41:59.739Z,10.70
2022-10-06T00:45:48.658Z,10.60
2022-10-06T00:49:38.112Z,10.60
2022-10-06T00:53:21.344Z,10.60
2022-10-06T00:57:04.709Z,10.60
2022-10-06T01:00:49.530Z,10.50
2022-10-06T01:04:35.288Z,10.50
2022-10-06T01:08:18.217Z,10.50
2022-10-06T01:12:03.706Z,10.50
2022-10-06T01:15:53.836Z,10.50
2022-10-06T01:20:00.266Z,10.50
2022-10-06T01:23:42.529Z,10.50
2022-10-06T01:27:26.845Z,10.50
2022-10-06T01:31:10.026Z,10.40
2022-10-06T01:34:51.925Z,10.40
2022-10-06T01:38:33.973Z,10.40
2022-10-06T01:42:15.883Z,10.30
2022-10-06T01:45:58.873Z,10.30
2022-10-06T01:49:40.965Z,10.20
2022-10-06T01:53:23.267Z,10.20
2022-10-06T01:57:10.876Z,10.20
2022-10-06T02:00:52.839Z,10.20
2022-10-06T02:04:34.861Z,10.10
2022-10-06T02:08:16.758Z,10.10
2022-10-06T02:11:58.659Z,10.10
2022-10-06T02:15:40.621Z,10.10
2022-10-06T02:19:22.629Z,10.10
2022-10-06T02:23:04.534Z,10.00
2022-10-06T02:26:46.765Z,10.00
2022-10-06T02:30:28.665Z,9.90
2022-10-06T02:34:10.648Z,9.90
2022-10-06T02:37:52.584Z,9.80
2022-10-06T02:41:34.517Z,9.80
2022-10-06T02:45:16.628Z,9.80
2022-10-06T02:48:58.974Z,9.80
2022-10-06T02:52:42.956Z,9.80
2022-10-06T02:56:25.827Z,9.80
2022-10-06T03:00:08.453Z,9.80
2022-10-06T03:03:50.522Z,9.70
2022-10-06T03:07:32.540Z,9.70
2022-10-06T03:11:14.981Z,9.70
2022-10-06T03:14:56.941Z,9.60
2022-10-06T03:18:38.836Z,9.60
2022-10-06T03:22:20.804Z,9.50
2022-10-06T03:26:02.743Z,9.50
2022-10-06T03:29:45.071Z,9.50
2022-10-06T03:33:26.976Z,9.40
2022-10-06T03:37:08.923Z,9.50
2022-10-06T03:40:50.838Z,9.50
2022-10-06T03:44:35.119Z,9.50
2022-10-06T03:48:17.093Z,9.50
2022-10-06T03:51:59.030Z,9.50
2022-10-06T03:55:40.932Z,9.50
2022-10-06T03:59:23.059Z,9.50
2022-10-06T04:03:05.065Z,9.50
2022-10-06T04:06:47.020Z,9.40
2022-10-06T04:10:28.972Z,9.50
2022-10-06T04:14:13.801Z,9.40
2022-10-06T04:17:55.783Z,9.40
2022-10-06T04:21:39.167Z,9.50
2022-10-06T04:25:21.087Z,9.40
2022-10-06T04:29:03.750Z,9.40
2022-10-06T04:32:46.091Z,9.50
2022-10-06T04:36:31.078Z,9.50
2022-10-06T04:40:13.534Z,9.50
2022-10-06T04:43:56.314Z,9.50
2022-10-06T04:47:38.272Z,9.50
2022-10-06T04:51:22.462Z,9.50
2022-10-06T04:55:04.912Z,9.50
2022-10-06T04:58:49.145Z,9.40
2022-10-06T05:02:31.490Z,9.40
2022-10-06T05:06:16.960Z,9.40
2022-10-06T05:09:58.884Z,9.40
2022-10-06T05:13:41.234Z,9.50
2022-10-06T05:17:23.518Z,9.50
2022-10-06T05:21:08.434Z,9.60
2022-10-06T05:24:53.802Z,9.70
2022-10-06T05:28:35.915Z,9.70
2022-10-06T05:32:17.935Z,9.70
2022-10-06T05:36:06.589Z,9.70
2022-10-06T05:39:48.498Z,9.70
2022-10-06T05:43:31.216Z,9.70
2022-10-06T05:47:13.117Z,9.70
2022-10-06T05:51:06.105Z,9.70
2022-10-06T05:54:47.982Z,9.80
2022-10-06T05:58:30.701Z,9.80
2022-10-06T06:02:13.175Z,9.70
2022-10-06T06:05:55.218Z,9.70
2022-10-06T06:09:37.580Z,9.70
2022-10-06T06:13:23.308Z,9.60
2022-10-06T06:17:05.493Z,9.70
2022-10-06T06:20:56.413Z,9.70
2022-10-06T06:24:38.314Z,9.60
2022-10-06T06:28:20.308Z,9.70
2022-10-06T06:32:02.333Z,9.70
2022-10-06T06:35:44.270Z,9.70
2022-10-06T06:39:26.302Z,9.70
2022-10-06T06:43:08.270Z,9.70
2022-10-06T06:46:50.202Z,9.70
2022-10-06T06:50:32.618Z,9.80
2022-10-06T06:54:14.594Z,9.80
2022-10-06T06:57:56.530Z,9.80
2022-10-06T07:01:44.554Z,9.90
2022-10-06T07:05:27.468Z,9.90
2022-10-06T07:09:10.525Z,10.00
2022-10-06T07:12:52.499Z,10.00
2022-10-06T07:16:53.555Z,10.00
2022-10-06T07:20:54.149Z,10.10
2022-10-06T07:24:55.049Z,10.20
2022-10-06T07:28:37.048Z,10.20
2022-10-06T07:32:21.321Z,10.30
2022-10-06T07:36:03.424Z,10.40
2022-10-06T07:39:45.429Z,10.40
2022-10-06T07:43:27.533Z,10.50
2022-10-06T07:47:10.011Z,10.60
2022-10-06T07:50:52.982Z,10.70
2022-10-06T07:54:34.868Z,10.80
2022-10-06T07:58:19.498Z,10.80
2022-10-06T08:02:01.552Z,10.90
2022-10-06T08:05:48.272Z,11.00
2022-10-06T08:09:30.817Z,11.10
2022-10-06T08:13:12.877Z,11.20
2022-10-06T08:16:54.840Z,11.30
2022-10-06T08:20:36.803Z,11.40
2022-10-06T08:24:19.784Z,11.40
2022-10-06T08:28:01.994Z,11.50
2022-10-06T08:31:44.012Z,11.70
2022-10-06T08:35:26.382Z,11.80
2022-10-06T08:39:08.449Z,11.90
2022-10-06T08:42:53.546Z,12.00
2022-10-06T08:46:40.605Z,12.10
2022-10-06T08:50:27.065Z,12.20
2022-10-06T08:54:15.874Z,12.30
2022-10-06T08:57:57.761Z,12.40
2022-10-06T09:01:48.362Z,12.50
2022-10-06T09:05:32.160Z,12.60
2022-10-06T09:09:39.089Z,12.80
2022-10-06T09:13:30.618Z,12.90
2022-10-06T09:17:20.078Z,13.00
2022-10-06T09:21:16.118Z,13.10
2022-10-06T09:25:14.710Z,13.20
2022-10-06T09:28:57.408Z,13.30
2022-10-06T09:32:45.101Z,13.40
2022-10-06T09:36:27.231Z,13.50
2022-10-06T09:40:33.833Z,13.60
2022-10-06T09:44:31.756Z,13.60
2022-10-06T09:48:25.107Z,13.70
2022-10-06T09:52:15.380Z,13.90
2022-10-06T09:55:57.662Z,13.90
2022-10-06T09:59:43.632Z,13.90
2022-10-06T10:03:26.437Z,14.00
2022-10-06T10:07:26.376Z,14.10
2022-10-06T10:11:08.270Z,14.30
2022-10-06T10:14:50.995Z,14.40
2022-10-06T10:18:33.842Z,14.50
2022-10-06T10:22:31.065Z,14.70
2022-10-06T10:26:41.749Z,14.90
2022-10-06T10:30:24.083Z,15.10
2022-10-06T10:34:27.232Z,15.30
2022-10-06T10:38:27.025Z,15.50
2022-10-06T10:42:37.329Z,15.50
2022-10-06T10:46:25.443Z,15.60
2022-10-06T10:50:29.017Z,15.60
2022-10-06T10:54:21.691Z,15.70
2022-10-06T10:58:22.260Z,15.90
2022-10-06T11:02:14.780Z,16.00
2022-10-06T11:05:59.642Z,16.30
2022-10-06T11:09:50.657Z,16.50
2022-10-06T11:13:39.801Z,16.70
2022-10-06T11:17:46.733Z,17.00
2022-10-06T11:21:50.729Z,17.20
2022-10-06T11:25:46.689Z,17.40
2022-10-06T11:29:47.039Z,17.60
2022-10-06T11:33:31.793Z,17.80
2022-10-06T11:37:24.986Z,18.10
2022-10-06T11:41:32.052Z,18.30
2022-10-06T11:45:16.310Z,18.40
2022-10-06T11:49:29.382Z,18.40
2022-10-06T11:53:26.813Z,18.20
2022-10-06T11:57:35.648Z,18.30
2022-10-06T12:01:36.468Z,18.20
2022-10-06T12:09:24.094Z,17.80
2022-10-06T12:17:55.534Z,17.50
2022-10-06T12:21:47.379Z,17.50
2022-10-06T12:25:41.218Z,17.50
2022-10-06T12:29:38.998Z,17.60
2022-10-06T12:33:35.823Z,17.60
2022-10-06T12:37:36.054Z,17.40
2022-10-06T12:41:56.275Z,17.30
2022-10-06T12:45:45.921Z,17.50
2022-10-06T12:49:41.945Z,17.70
2022-10-06T12:53:33.753Z,17.80
2022-10-06T12:57:18.634Z,18.20
2022-10-06T13:01:03.328Z,18.70
2022-10-06T13:04:54.344Z,19.30
2022-10-06T13:08:38.196Z,19.40
2022-10-06T13:12:21.590Z,19.10
2022-10-06T13:16:04.329Z,18.80
2022-10-06T13:19:46.299Z,18.90
2022-10-06T13:23:37.495Z,18.80
2022-10-06T13:27:19.401Z,18.70
2022-10-06T13:31:14.364Z,18.70
2022-10-06T13:34:57.363Z,18.50
2022-10-06T13:38:41.827Z,18.40
2022-10-06T13:42:24.278Z,18.20
2022-10-06T13:46:13.989Z,18.00
2022-10-06T13:50:07.106Z,18.10
2022-10-06T13:53:49.345Z,18.20
2022-10-06T13:57:38.174Z,18.20
2022-10-06T14:01:29.700Z,18.20
2022-10-06T14:05:36.588Z,18.40
2022-10-06T14:09:25.048Z,18.80
2022-10-06T14:13:24.857Z,19.10
2022-10-06T14:17:06.981Z,19.00
2022-10-06T14:20:51.107Z,18.80
2022-10-06T14:24:37.548Z,18.70
2022-10-06T14:28:19.553Z,18.80
2022-10-06T14:32:15.639Z,18.80
2022-10-06T14:35:57.709Z,18.60
2022-10-06T14:39:40.470Z,18.50
2022-10-06T14:43:22.416Z,18.50
2022-10-06T14:47:09.397Z,18.50
2022-10-06T14:50:51.362Z,18.40
2022-10-06T14:54:34.649Z,18.40
2022-10-06T14:58:16.549Z,18.40
2022-10-06T15:01:58.582Z,18.40
2022-10-06T15:06:00.421Z,18.40
2022-10-06T15:09:42.866Z,18.30
2022-10-06T15:13:24.803Z,18.20
2022-10-06T15:17:07.017Z,18.20
2022-10-06T15:20:49.023Z,18.20
2022-10-06T15:24:30.956Z,18.10
2022-10-06T15:28:32.103Z,18.10
2022-10-06T15:32:15.601Z,18.10
2022-10-06T15:36:16.373Z,18.10
2022-10-06T15:39:58.431Z,18.10
2022-10-06T15:43:55.741Z,18.00
2022-10-06T15:47:37.687Z,18.30
2022-10-06T15:51:22.134Z,19.30
2022-10-06T15:55:04.229Z,20.20
2022-10-06T15:58:48.779Z,20.30
2022-10-06T16:02:35.649Z,19.90
2022-10-06T16:06:17.824Z,19.40
2022-10-06T16:10:00.258Z,19.00
2022-10-06T16:13:42.240Z,18.70
2022-10-06T16:17:24.249Z,18.50
2022-10-06T16:21:07.624Z,18.40
2022-10-06T16:24:50.230Z,18.30
2022-10-06T16:28:32.175Z,18.10
2022-10-06T16:32:14.116Z,18.10
2022-10-06T16:35:59.463Z,18.10
2022-10-06T16:39:41.339Z,18.30
2022-10-06T16:43:24.605Z,18.10
2022-10-06T16:47:06.501Z,18.00
2022-10-06T16:50:48.455Z,17.90
2022-10-06T16:54:30.329Z,17.70
2022-10-06T16:58:12.252Z,17.60
2022-10-06T17:01:54.188Z,17.50
2022-10-06T17:05:39.236Z,17.40
2022-10-06T17:09:23.563Z,17.40
2022-10-06T17:13:05.505Z,17.30
2022-10-06T17:16:49.341Z,17.10
2022-10-06T17:20:31.391Z,17.00
2022-10-06T17:24:13.997Z,16.90
2022-10-06T17:27:56.103Z,16.90
2022-10-06T17:31:40.636Z,16.80
2022-10-06T17:35:23.130Z,16.70
2022-10-06T17:39:06.361Z,16.60
2022-10-06T17:42:48.280Z,16.40
2022-10-06T17:46:34.876Z,16.40
2022-10-06T17:50:17.210Z,16.30
2022-10-06T17:54:00.382Z,16.10
2022-10-06T17:57:42.953Z,16.00
2022-10-06T18:01:27.386Z,15.90
2022-10-06T18:05:09.723Z,15.90
2022-10-06T18:08:51.712Z,15.80
2022-10-06T18:12:36.305Z,15.80
2022-10-06T18:16:23.591Z,15.70
2022-10-06T18:20:06.389Z,15.70
2022-10-06T18:23:49.055Z,15.60
2022-10-06T18:27:33.435Z,15.50
2022-10-06T18:31:17.793Z,15.40
2022-10-06T18:36:06.687Z,15.40
2022-10-06T18:39:02.047Z,15.30
2022-10-06T18:42:43.992Z,15.30
2022-10-06T18:46:45.702Z,15.20
2022-10-06T18:50:27.759Z,15.10
2022-10-06T18:54:15.990Z,15.00
2022-10-06T18:57:57.962Z,15.00
2022-10-06T19:01:45.410Z,14.90
2022-10-06T19:05:27.453Z,14.80
2022-10-06T19:09:11.978Z,14.80
2022-10-06T19:12:53.922Z,14.80
2022-10-06T19:16:36.639Z,14.70
2022-10-06T19:20:18.906Z,14.70
2022-10-06T19:24:01.114Z,14.70
2022-10-06T19:27:43.284Z,14.60
2022-10-06T19:31:28.828Z,14.60
2022-10-06T19:35:11.042Z,14.60
2022-10-06T19:38:55.541Z,14.60
2022-10-06T19:42:49.417Z,14.60
2022-10-06T19:46:31.427Z,14.60
2022-10-06T19:50:14.402Z,14.50
2022-10-06T19:53:56.274Z,14.50
2022-10-06T19:57:38.286Z,14.40
2022-10-06T20:01:20.537Z,14.40
2022-10-06T20:05:02.499Z,14.40
2022-10-06T20:08:44.471Z,14.40
2022-10-06T20:12:28.402Z,14.30
2022-10-06T20:16:14.685Z,14.30
2022-10-06T20:19:57.964Z,14.30
2022-10-06T20:23:40.789Z,14.30
2022-10-06T20:27:22.689Z,14.30
2022-10-06T20:31:04.758Z,14.20
2022-10-06T20:34:46.737Z,14.20
2022-10-06T20:38:47.401Z,14.20
2022-10-06T20:42:29.517Z,14.10
2022-10-06T20:46:11.567Z,14.10
2022-10-06T20:49:55.373Z,14.10
2022-10-06T20:53:37.413Z,14.10
2022-10-06T20:57:19.759Z,14.00
2022-10-06T21:01:11.233Z,14.00
2022-10-06T21:04:53.129Z,13.90
2022-10-06T21:08:35.109Z,13.90
2022-10-06T21:12:17.054Z,13.90
2022-10-06T21:16:00.274Z,13.90
2022-10-06T21:19:42.302Z,13.90
2022-10-06T21:23:24.155Z,13.90
2022-10-06T21:27:06.056Z,13.80
2022-10-06T21:30:48.232Z,13.80
2022-10-06T21:34:30.155Z,13.80
2022-10-06T21:38:12.505Z,13.70
2022-10-06T21:41:54.436Z,13.70
2022-10-06T21:45:39.240Z,13.60
2022-10-06T21:49:23.413Z,13.60
2022-10-06T21:53:05.463Z,13.60
2022-10-06T21:56:47.874Z,13.50
2022-10-06T22:00:29.940Z,13.50
2022-10-06T22:04:14.283Z,13.40
2022-10-06T22:07:56.298Z,13.40
2022-10-06T22:11:39.892Z,13.40
2022-10-06T22:15:21.900Z,13.40
2022-10-06T22:19:06.167Z,13.40
2022-10-06T22:22:48.164Z,13.40
2022-10-06T22:26:31.863Z,13.40
2022-10-06T22:30:14.023Z,13.40
2022-10-06T22:33:58.372Z,13.30
2022-10-06T22:37:40.246Z,13.30
2022-10-06T22:41:22.640Z,13.30
2022-10-06T22:45:05.009Z,13.30
2022-10-06T22:48:46.889Z,13.30
2022-10-06T22:52:28.879Z,13.30
2022-10-06T22:56:10.775Z,13.30
2022-10-06T22:59:52.894Z,13.20
2022-10-06T23:03:34.893Z,13.30
2022-10-06T23:07:16.879Z,13.20
2022-10-06T23:11:13.239Z,13.20
2022-10-06T23:14:55.137Z,13.20
2022-10-06T23:18:38.768Z,13.20
2022-10-06T23:22:20.732Z,13.20
2022-10-06T23:26:08.827Z,13.20
2022-10-06T23:29:50.681Z,13.10
2022-10-06T23:33:33.497Z,13.20
2022-10-06T23:37:15.618Z,13.20
2022-10-06T23:40:57.825Z,13.20
2022-10-06T23:44:41.175Z,13.20
2022-10-06T23:48:23.164Z,13.20
2022-10-06T23:52:05.063Z,13.20
2022-10-06T23:55:46.996Z,13.20
2022-10-06T23:59:29.902Z,13.20
